MET'MAP v2.0
soon released !

Expected late october,
this new version will be
more efficient, smarter,
and hosted on a brand new
server x3 powerfull...
...and still free !


Not compatible ?
Try the mobile version !

LOG IN : | Subscribe | Disclaimer | Who is Orbifly ? |
ICAO code :

TAF - LRTR Timisoara - 10 Apr 2020 05:54 UTC - Data Source NOAA   


- Airport Elevation : 348 ft
- IATA code : TSR
- No reported NOTAMs.


LRTR - Timisoara

Latest METAR recorded : 2015/08/11 08:00 LRTR 110800Z 07004KT 030V110 CAVOK 29/10 Q1013 NOSIG
TAF TAF LRTR
Valid from the 10 at 00:00 until the 11 at 00:00 UTC


092300Z 1000/1024 VRB04KT CAVOK
BECMG 1008/1010 36012KT
BECMG 1018/1020 06008KT

Source NOAA


MET'MAP, your aeronautical weather chart ! - Copyright ORBIFLY December 2007

Programming & Development : Alexandra Zaïnal
Co-Developer : Marc-Olivier Méhu
Technical & hardware support : Manuel Goepfert
Concept & Financing : Baudouin d'Aumeries